createdAt,value
2022-08-23T00:00:05.598Z,55.27
2022-08-23T00:01:04.382Z,55.17
2022-08-23T00:02:03.389Z,54.87
2022-08-23T00:03:03.450Z,54.77
2022-08-23T00:04:03.342Z,54.77
2022-08-23T00:05:08.167Z,54.57
2022-08-23T00:06:04.313Z,54.57
2022-08-23T00:07:03.305Z,54.27
2022-08-23T00:08:03.314Z,54.87
2022-08-23T00:09:03.271Z,55.47
2022-08-23T00:10:03.267Z,55.67
2022-08-23T00:11:03.251Z,55.37
2022-08-23T00:12:03.244Z,55.50
2022-08-23T00:13:03.243Z,55.50
2022-08-23T00:14:03.214Z,55.30
2022-08-23T00:15:03.203Z,55.20
2022-08-23T00:16:03.183Z,54.50
2022-08-23T00:17:03.187Z,55.10
2022-08-23T00:18:03.172Z,55.20
2022-08-23T00:19:03.566Z,54.70
2022-08-23T00:20:03.149Z,54.50
2022-08-23T00:21:03.131Z,55.02
2022-08-23T00:22:03.137Z,54.62
2022-08-23T00:23:03.104Z,54.43
2022-08-23T00:24:03.087Z,54.93
2022-08-23T00:25:03.068Z,55.32
2022-08-23T00:26:03.066Z,55.02
2022-08-23T00:27:03.045Z,54.32
2022-08-23T00:28:03.057Z,54.02
2022-08-23T00:29:03.016Z,54.43
2022-08-23T00:30:03.013Z,54.43
2022-08-23T00:31:02.998Z,54.43
2022-08-23T00:32:02.997Z,53.82
2022-08-23T00:33:02.970Z,52.82
2022-08-23T00:34:02.963Z,53.92
2022-08-23T00:35:02.939Z,53.72
2022-08-23T00:36:02.934Z,53.62
2022-08-23T00:37:02.928Z,53.52
2022-08-23T00:38:31.627Z,52.92
2022-08-23T00:39:03.889Z,52.92
2022-08-23T00:40:03.027Z,53.19
2022-08-23T00:41:02.857Z,53.19
2022-08-23T00:42:02.874Z,53.19
2022-08-23T00:43:02.830Z,53.19
2022-08-23T00:44:02.816Z,53.39
2022-08-23T00:45:02.799Z,53.30
2022-08-23T00:46:02.802Z,53.39
2022-08-23T00:47:02.790Z,53.02
2022-08-23T00:48:02.769Z,53.32
2022-08-23T00:49:02.749Z,53.72
2022-08-23T00:50:02.800Z,53.82
2022-08-23T00:51:02.720Z,53.72
2022-08-23T00:52:02.749Z,53.72
2022-08-23T00:53:02.700Z,53.95
2022-08-23T00:54:02.699Z,54.15
2022-08-23T00:55:02.681Z,54.45
2022-08-23T00:56:02.684Z,54.45
2022-08-23T00:57:02.640Z,54.15
2022-08-23T00:58:02.659Z,54.15
2022-08-23T00:59:02.614Z,54.38
2022-08-23T01:00:02.652Z,54.68
2022-08-23T01:01:02.600Z,54.68
2022-08-23T01:02:02.632Z,54.68
2022-08-23T01:03:02.683Z,54.97
2022-08-23T01:04:04.875Z,55.08
2022-08-23T01:05:02.542Z,54.58
2022-08-23T01:06:02.522Z,54.68
2022-08-23T01:07:02.519Z,54.88
2022-08-23T01:08:02.632Z,54.97
2022-08-23T01:09:02.513Z,54.47
2022-08-23T01:10:03.480Z,54.58
2022-08-23T01:11:02.482Z,54.58
2022-08-23T01:12:03.453Z,54.77
2022-08-23T01:13:02.461Z,55.28
2022-08-23T01:14:02.423Z,55.08
2022-08-23T01:15:02.425Z,54.97
2022-08-23T01:16:02.402Z,55.18
2022-08-23T01:17:02.394Z,55.18
2022-08-23T01:18:02.392Z,55.20
2022-08-23T01:19:02.366Z,55.60
2022-08-23T01:20:02.354Z,55.71
2022-08-23T01:21:02.345Z,55.51
2022-08-23T01:22:02.324Z,55.80
2022-08-23T01:23:02.324Z,55.60
2022-08-23T01:24:02.294Z,55.91
2022-08-23T01:25:07.785Z,56.21
2022-08-23T01:26:03.273Z,56.30
2022-08-23T01:27:02.263Z,56.30
2022-08-23T01:28:02.415Z,56.71
2022-08-23T01:29:02.228Z,56.84
2022-08-23T01:30:02.222Z,57.04
2022-08-23T01:31:02.214Z,57.14
2022-08-23T01:32:02.185Z,57.24
2022-08-23T01:33:02.226Z,57.24
2022-08-23T01:34:02.166Z,57.04
2022-08-23T01:35:02.155Z,57.14
2022-08-23T01:36:02.156Z,56.63
2022-08-23T01:37:02.135Z,57.04
2022-08-23T01:38:02.310Z,56.84
2022-08-23T01:39:02.106Z,57.04
2022-08-23T01:40:02.128Z,56.84
2022-08-23T01:41:02.073Z,56.84
2022-08-23T01:42:02.064Z,56.54
2022-08-23T01:43:03.056Z,57.37
2022-08-23T01:44:02.027Z,57.17
2022-08-23T01:45:02.024Z,57.37
2022-08-23T01:46:02.007Z,57.57
2022-08-23T01:47:01.993Z,57.06
2022-08-23T01:48:02.363Z,57.06
2022-08-23T01:49:04.527Z,57.46
2022-08-23T01:50:02.951Z,57.57
2022-08-23T01:51:01.939Z,57.37
2022-08-23T01:52:01.939Z,57.46
2022-08-23T01:53:02.192Z,57.57
2022-08-23T01:54:01.898Z,57.87
2022-08-23T01:55:01.899Z,58.20
2022-08-23T01:56:01.870Z,58.40
2022-08-23T01:57:01.848Z,58.60
2022-08-23T01:58:01.858Z,58.09
2022-08-23T01:59:01.829Z,58.20
2022-08-23T02:00:01.818Z,58.29
2022-08-23T02:01:01.789Z,58.29
2022-08-23T02:02:01.850Z,58.20
2022-08-23T02:03:02.070Z,57.90
2022-08-23T02:04:05.387Z,57.59
2022-08-23T02:05:01.751Z,57.90
2022-08-23T02:06:01.740Z,57.90
2022-08-23T02:07:01.725Z,57.90
2022-08-23T02:08:01.883Z,57.70
2022-08-23T02:09:03.520Z,57.59
2022-08-23T02:10:01.684Z,58.40
2022-08-23T02:11:01.669Z,58.40
2022-08-23T02:12:01.664Z,58.42
2022-08-23T02:13:01.653Z,58.02
2022-08-23T02:14:01.649Z,58.22
2022-08-23T02:15:01.619Z,58.42
2022-08-23T02:16:01.599Z,58.53
2022-08-23T02:17:04.189Z,58.42
2022-08-23T02:18:01.759Z,58.53
2022-08-23T02:19:01.581Z,58.53
2022-08-23T02:20:01.552Z,58.73
2022-08-23T02:21:01.601Z,58.53
2022-08-23T02:22:01.522Z,58.73
2022-08-23T02:23:01.773Z,58.73
2022-08-23T02:24:01.526Z,58.62
2022-08-23T02:25:01.479Z,58.53
2022-08-23T02:26:01.475Z,58.53
2022-08-23T02:27:01.858Z,58.53
2022-08-23T02:28:01.456Z,58.62
2022-08-23T02:29:01.454Z,58.65
2022-08-23T02:30:02.117Z,58.75
2022-08-23T02:31:01.403Z,58.75
2022-08-23T02:32:01.392Z,58.95
2022-08-23T02:33:01.541Z,59.06
2022-08-23T02:36:22.725Z,59.16
2022-08-23T02:37:22.671Z,59.06
2022-08-23T02:38:22.667Z,59.36
2022-08-23T02:39:22.678Z,59.16
2022-08-23T02:40:22.700Z,59.16
2022-08-23T02:41:22.627Z,59.26
2022-08-23T02:42:22.619Z,59.16
2022-08-23T02:43:22.600Z,59.16
2022-08-23T02:44:22.610Z,59.28
2022-08-23T02:45:22.587Z,59.59
2022-08-23T02:46:22.551Z,59.69
2022-08-23T02:47:22.540Z,59.79
2022-08-23T02:48:22.567Z,59.59
2022-08-23T02:49:22.531Z,59.59
2022-08-23T02:50:22.511Z,59.59
2022-08-23T02:51:22.480Z,59.69
2022-08-23T02:52:22.480Z,59.79
2022-08-23T02:53:22.481Z,59.79
2022-08-23T02:54:22.471Z,60.09
2022-08-23T02:55:22.442Z,60.09
2022-08-23T02:56:22.422Z,60.09
2022-08-23T02:57:22.408Z,60.09
2022-08-23T02:58:22.401Z,60.19
2022-08-23T02:59:22.409Z,60.09
2022-08-23T03:00:22.374Z,60.09
2022-08-23T03:01:22.352Z,59.99
2022-08-23T03:02:22.405Z,59.99
2022-08-23T03:03:22.477Z,60.09
2022-08-23T03:04:22.343Z,59.99
2022-08-23T03:05:22.305Z,60.09
2022-08-23T03:06:24.535Z,60.09
2022-08-23T03:07:22.263Z,59.89
2022-08-23T03:08:22.263Z,59.99
2022-08-23T03:09:22.254Z,60.09
2022-08-23T03:10:22.223Z,59.99
2022-08-23T03:11:22.215Z,60.09
2022-08-23T03:12:22.209Z,59.99
2022-08-23T03:13:22.242Z,60.39
2022-08-23T03:14:22.196Z,60.29
2022-08-23T03:15:22.154Z,60.42
2022-08-23T03:16:22.154Z,60.52
2022-08-23T03:17:22.125Z,60.72
2022-08-23T03:18:22.135Z,60.52
2022-08-23T03:19:22.125Z,60.72
2022-08-23T03:20:22.111Z,60.63
2022-08-23T03:21:22.074Z,60.63
2022-08-23T03:22:22.077Z,60.72
2022-08-23T03:23:22.050Z,60.83
2022-08-23T03:24:22.065Z,60.72
2022-08-23T03:25:22.028Z,60.72
2022-08-23T03:26:22.017Z,60.72
2022-08-23T03:27:21.993Z,60.72
2022-08-23T03:28:21.987Z,60.72
2022-08-23T03:29:21.984Z,60.72
2022-08-23T03:30:21.950Z,60.72
2022-08-23T03:31:21.909Z,60.83
2022-08-23T03:32:21.874Z,60.93
2022-08-23T03:33:21.868Z,60.93
2022-08-23T03:34:21.882Z,61.13
2022-08-23T03:35:21.842Z,61.43
2022-08-23T03:36:27.911Z,61.43
2022-08-23T03:37:22.811Z,61.53
2022-08-23T03:38:21.801Z,61.56
2022-08-23T03:39:21.813Z,61.66
2022-08-23T03:40:21.812Z,61.56
2022-08-23T03:41:21.791Z,61.66
2022-08-23T03:42:21.758Z,61.56
2022-08-23T03:43:22.729Z,61.86
2022-08-23T03:44:21.740Z,61.86
2022-08-23T03:45:21.712Z,61.96
2022-08-23T03:46:21.692Z,61.96
2022-08-23T03:47:21.691Z,62.16
2022-08-23T03:48:21.662Z,62.16
2022-08-23T03:49:21.666Z,62.16
2022-08-23T03:50:21.632Z,62.77
2022-08-23T03:51:21.623Z,62.77
2022-08-23T03:52:21.618Z,62.87
2022-08-23T03:53:21.602Z,62.97
2022-08-23T03:54:22.175Z,63.17
2022-08-23T03:55:21.573Z,63.17
2022-08-23T03:56:21.553Z,63.17
2022-08-23T03:57:21.543Z,63.37
2022-08-23T03:58:21.570Z,63.37
2022-08-23T03:59:21.529Z,63.40
2022-08-23T04:00:21.504Z,63.50
2022-08-23T04:01:25.221Z,63.70
2022-08-23T04:02:22.474Z,63.90
2022-08-23T04:03:21.467Z,64.01
2022-08-23T04:04:21.464Z,64.21
2022-08-23T04:05:21.434Z,64.24
2022-08-23T04:06:21.412Z,64.54
2022-08-23T04:07:21.445Z,64.54
2022-08-23T04:08:33.183Z,64.75
2022-08-23T04:09:22.395Z,64.75
2022-08-23T04:10:21.373Z,64.95
2022-08-23T04:11:21.384Z,65.05
2022-08-23T04:12:21.335Z,64.95
2022-08-23T04:13:21.331Z,65.25
2022-08-23T04:14:21.341Z,65.15
2022-08-23T04:15:21.295Z,65.15
2022-08-23T04:16:21.287Z,65.25
2022-08-23T04:17:21.276Z,65.45
2022-08-23T04:18:21.256Z,65.18
2022-08-23T04:19:21.258Z,65.28
2022-08-23T04:20:21.216Z,65.58
2022-08-23T04:21:21.216Z,65.58
2022-08-23T04:22:21.205Z,65.58
2022-08-23T04:23:21.260Z,65.88
2022-08-23T04:24:21.206Z,65.78
2022-08-23T04:25:34.928Z,65.78
2022-08-23T04:26:22.144Z,65.78
2022-08-23T04:27:21.134Z,65.99
2022-08-23T04:28:21.116Z,65.99
2022-08-23T04:29:24.836Z,65.99
2022-08-23T04:30:22.098Z,65.99
2022-08-23T04:31:22.357Z,66.19
2022-08-23T04:32:28.167Z,66.08
2022-08-23T04:33:22.058Z,66.19
2022-08-23T04:34:21.060Z,66.29
2022-08-23T04:35:22.018Z,66.59
2022-08-23T04:36:21.025Z,66.59
2022-08-23T04:37:21.006Z,66.49
2022-08-23T04:38:25.206Z,66.69
2022-08-23T04:39:20.982Z,66.89
2022-08-23T04:40:21.001Z,66.89
2022-08-23T04:41:20.949Z,66.93
2022-08-23T04:42:21.734Z,67.13
2022-08-23T04:43:20.930Z,67.23
2022-08-23T04:44:20.879Z,67.33
2022-08-23T04:45:20.915Z,67.43
2022-08-23T04:46:20.883Z,67.43
2022-08-23T04:47:20.859Z,67.23
2022-08-23T04:48:20.858Z,67.23
2022-08-23T04:49:20.839Z,67.43
2022-08-23T04:50:20.876Z,67.23
2022-08-23T04:51:20.811Z,66.72
2022-08-23T04:52:20.811Z,66.32
2022-08-23T04:53:20.787Z,66.52
2022-08-23T04:54:22.582Z,66.52
2022-08-23T04:55:20.777Z,66.52
2022-08-23T04:56:20.741Z,66.32
2022-08-23T04:57:20.740Z,66.32
2022-08-23T04:58:20.710Z,66.32
2022-08-23T04:59:20.701Z,66.32
2022-08-23T05:00:20.741Z,66.32
2022-08-23T05:01:20.767Z,66.29
2022-08-23T05:02:20.652Z,66.69
2022-08-23T05:03:21.040Z,66.89
2022-08-23T05:04:20.635Z,66.99
2022-08-23T05:05:20.639Z,67.10
2022-08-23T05:06:20.613Z,67.33
2022-08-23T05:07:20.618Z,67.53
2022-08-23T05:08:21.580Z,67.83
2022-08-23T05:09:20.948Z,67.63
2022-08-23T05:10:20.570Z,67.73
2022-08-23T05:11:20.586Z,67.83
2022-08-23T05:12:20.529Z,67.83
2022-08-23T05:13:20.573Z,67.73
2022-08-23T05:14:20.839Z,67.70
2022-08-23T05:15:20.511Z,67.60
2022-08-23T05:16:20.476Z,67.60
2022-08-23T05:17:20.462Z,67.50
2022-08-23T05:18:20.443Z,67.40
2022-08-23T05:19:20.432Z,67.30
2022-08-23T05:20:20.433Z,67.19
2022-08-23T05:21:20.432Z,67.10
2022-08-23T05:22:20.421Z,67.19
2022-08-23T05:23:20.382Z,67.19
2022-08-23T05:24:21.343Z,67.19
2022-08-23T05:25:20.375Z,67.10
2022-08-23T05:26:20.342Z,67.10
2022-08-23T05:27:20.327Z,67.10
2022-08-23T05:28:20.305Z,67.19
2022-08-23T05:29:20.303Z,67.10
2022-08-23T05:30:20.313Z,67.10
2022-08-23T05:31:20.265Z,67.10
2022-08-23T05:32:20.244Z,67.10
2022-08-23T05:33:20.255Z,67.10
2022-08-23T05:34:22.658Z,67.10
2022-08-23T05:35:20.243Z,66.89
2022-08-23T05:36:20.204Z,66.89
2022-08-23T05:37:20.194Z,67.10
2022-08-23T05:38:20.866Z,67.19
2022-08-23T05:39:24.168Z,67.40
2022-08-23T05:40:21.240Z,67.50
2022-08-23T05:41:20.960Z,67.40
2022-08-23T05:42:20.125Z,67.30
2022-08-23T05:43:20.123Z,67.16
2022-08-23T05:44:20.095Z,67.16
2022-08-23T05:45:21.731Z,67.27
2022-08-23T05:46:20.136Z,67.36
2022-08-23T05:47:24.884Z,67.16
2022-08-23T05:48:21.055Z,66.96
2022-08-23T05:49:21.205Z,67.07
2022-08-23T05:50:20.016Z,67.07
2022-08-23T05:51:20.032Z,66.86
2022-08-23T05:52:19.990Z,66.76
2022-08-23T05:53:19.978Z,66.66
2022-08-23T05:54:19.986Z,66.83
2022-08-23T05:55:19.955Z,66.73
2022-08-23T05:56:20.956Z,66.83
2022-08-23T05:57:19.927Z,66.73
2022-08-23T05:58:19.906Z,66.73
2022-08-23T05:59:19.907Z,66.83
2022-08-23T06:00:19.886Z,66.93
2022-08-23T06:01:19.949Z,66.73
2022-08-23T06:02:19.857Z,66.53
2022-08-23T06:03:19.855Z,66.42
2022-08-23T06:04:19.826Z,66.42
2022-08-23T06:05:19.818Z,66.73
2022-08-23T06:06:19.815Z,66.60
2022-08-23T06:07:19.791Z,66.50
2022-08-23T06:08:19.777Z,66.39
2022-08-23T06:09:19.781Z,66.39
2022-08-23T06:10:19.746Z,66.50
2022-08-23T06:11:19.758Z,66.50
2022-08-23T06:12:19.719Z,66.60
2022-08-23T06:13:19.710Z,66.70
2022-08-23T06:14:19.758Z,66.50
2022-08-23T06:15:19.696Z,66.30
2022-08-23T06:16:19.679Z,66.19
2022-08-23T06:17:19.659Z,66.09
2022-08-23T06:18:19.641Z,65.89
2022-08-23T06:19:19.628Z,65.69
2022-08-23T06:20:19.627Z,66.06
2022-08-23T06:21:19.640Z,65.96
2022-08-23T06:22:19.588Z,65.76
2022-08-23T06:23:19.567Z,66.06
2022-08-23T06:24:19.562Z,66.36
2022-08-23T06:25:19.550Z,66.27
2022-08-23T06:26:19.550Z,66.16
2022-08-23T06:27:19.521Z,66.16
2022-08-23T06:28:19.510Z,65.76
2022-08-23T06:29:20.560Z,65.26
2022-08-23T06:30:19.461Z,64.82
2022-08-23T06:31:19.574Z,64.82
2022-08-23T06:32:19.502Z,65.22
2022-08-23T06:33:19.494Z,65.22
2022-08-23T06:34:19.418Z,65.12
2022-08-23T06:35:38.390Z,64.92
2022-08-23T06:36:20.411Z,64.82
2022-08-23T06:37:19.390Z,64.59
2022-08-23T06:38:19.368Z,64.29
2022-08-23T06:39:19.360Z,64.29
2022-08-23T06:40:19.424Z,64.39
2022-08-23T06:41:19.329Z,64.49
2022-08-23T06:43:20.300Z,64.16
2022-08-23T06:44:19.284Z,63.96
2022-08-23T06:45:19.272Z,64.16
2022-08-23T06:46:19.289Z,64.36
2022-08-23T06:47:19.923Z,64.36
2022-08-23T06:48:19.232Z,64.16
2022-08-23T06:49:19.222Z,64.36
2022-08-23T06:50:19.193Z,64.46
2022-08-23T06:51:19.191Z,64.43
2022-08-23T06:52:19.193Z,64.43
2022-08-23T06:53:19.171Z,64.53
2022-08-23T06:54:19.148Z,64.33
2022-08-23T06:55:19.142Z,64.13
2022-08-23T06:56:19.114Z,64.43
2022-08-23T06:57:19.131Z,64.43
2022-08-23T06:58:19.093Z,64.50
2022-08-23T06:59:19.075Z,64.70
2022-08-23T07:00:22.314Z,64.50
2022-08-23T07:01:44.171Z,64.30
2022-08-23T07:02:20.249Z,64.30
2022-08-23T07:03:19.037Z,64.20
2022-08-23T07:04:19.004Z,63.59
2022-08-23T07:05:18.994Z,62.36
2022-08-23T07:06:18.984Z,62.56
2022-08-23T07:07:18.985Z,61.66
2022-08-23T07:08:18.975Z,61.55
2022-08-23T07:09:18.953Z,61.55
2022-08-23T07:10:18.924Z,62.06
2022-08-23T07:11:18.914Z,61.96
2022-08-23T07:12:18.914Z,61.72
2022-08-23T07:13:18.923Z,61.52
2022-08-23T07:14:18.875Z,61.33
2022-08-23T07:15:18.883Z,62.03
2022-08-23T07:16:18.876Z,61.52
2022-08-23T07:17:18.844Z,61.22
2022-08-23T07:18:18.824Z,61.33
2022-08-23T07:19:18.806Z,61.13
2022-08-23T07:20:18.787Z,61.22
2022-08-23T07:21:18.786Z,61.22
2022-08-23T07:22:18.776Z,61.72
2022-08-23T07:23:18.744Z,63.23
2022-08-23T07:24:18.800Z,64.14
2022-08-23T07:25:18.726Z,64.14
2022-08-23T07:26:18.705Z,62.83
2022-08-23T07:27:18.715Z,62.53
2022-08-23T07:28:18.674Z,62.03
2022-08-23T07:29:18.696Z,62.43
2022-08-23T07:30:18.654Z,62.70
2022-08-23T07:31:18.665Z,61.90
2022-08-23T07:32:18.934Z,61.70
2022-08-23T07:33:18.617Z,62.20
2022-08-23T07:34:18.595Z,61.80
2022-08-23T07:35:21.329Z,61.70
2022-08-23T07:36:18.622Z,61.30
2022-08-23T07:37:18.862Z,61.47
2022-08-23T07:38:18.549Z,61.67
2022-08-23T07:39:18.539Z,60.57
2022-08-23T07:40:20.677Z,59.96
2022-08-23T07:41:18.508Z,59.83
2022-08-23T07:42:23.364Z,59.74
2022-08-23T07:43:19.483Z,60.03
2022-08-23T07:44:18.659Z,59.74
2022-08-23T07:45:18.460Z,59.53
2022-08-23T07:46:18.489Z,59.53
2022-08-23T07:47:18.450Z,59.83
2022-08-23T07:48:37.126Z,60.01
2022-08-23T07:49:19.410Z,60.61
2022-08-23T07:50:18.389Z,60.41
2022-08-23T07:51:18.380Z,59.91
2022-08-23T07:52:18.383Z,59.81
2022-08-23T07:53:18.350Z,58.91
2022-08-23T07:54:19.335Z,58.70
2022-08-23T07:55:18.320Z,58.68
2022-08-23T07:56:18.309Z,58.87
2022-08-23T07:57:18.324Z,58.78
2022-08-23T07:58:18.275Z,58.48
2022-08-23T07:59:18.269Z,59.18
2022-08-23T08:00:18.248Z,57.87
2022-08-23T08:01:18.323Z,57.57
2022-08-23T08:02:18.278Z,57.45
2022-08-23T08:03:18.269Z,57.35
2022-08-23T08:04:18.222Z,57.75
2022-08-23T08:05:21.583Z,57.45
2022-08-23T08:06:18.183Z,56.85
2022-08-23T08:07:20.815Z,56.95
2022-08-23T08:08:18.151Z,56.15
2022-08-23T08:09:18.123Z,55.72
2022-08-23T08:10:18.122Z,55.82
2022-08-23T08:11:18.103Z,55.82
2022-08-23T08:12:18.094Z,55.82
2022-08-23T08:13:18.076Z,55.82
2022-08-23T08:14:18.063Z,55.82
2022-08-23T08:15:18.053Z,55.82
2022-08-23T08:16:18.099Z,56.49
2022-08-23T08:17:18.036Z,56.89
2022-08-23T08:18:18.064Z,56.29
2022-08-23T08:19:18.957Z,55.89
2022-08-23T08:20:17.996Z,55.89
2022-08-23T08:21:17.974Z,56.20
2022-08-23T08:22:17.975Z,56.99
2022-08-23T08:23:17.934Z,56.77
2022-08-23T08:24:17.936Z,55.17
2022-08-23T08:25:18.563Z,55.57
2022-08-23T08:26:17.904Z,55.47
2022-08-23T08:27:17.888Z,55.27
2022-08-23T08:28:17.895Z,54.86
2022-08-23T08:29:17.855Z,54.47
2022-08-23T08:30:17.848Z,54.17
2022-08-23T08:31:17.878Z,53.84
2022-08-23T08:32:17.816Z,53.24
2022-08-23T08:33:17.828Z,52.94
2022-08-23T08:34:17.797Z,52.84
2022-08-23T08:35:17.776Z,52.94
2022-08-23T08:36:17.776Z,53.14
2022-08-23T08:37:17.754Z,53.84
2022-08-23T08:38:17.746Z,54.04
2022-08-23T08:39:17.726Z,53.84
2022-08-23T08:40:17.755Z,52.84
2022-08-23T08:41:17.694Z,52.92
2022-08-23T08:42:18.001Z,53.12
2022-08-23T08:43:17.678Z,52.52
2022-08-23T08:44:17.659Z,52.12
2022-08-23T08:45:17.661Z,51.92
2022-08-23T08:46:17.681Z,51.92
2022-08-23T08:47:17.626Z,51.82
2022-08-23T08:48:17.618Z,51.92
2022-08-23T08:49:17.598Z,52.02
2022-08-23T08:50:17.579Z,53.09
2022-08-23T08:51:17.568Z,53.39
2022-08-23T08:52:17.581Z,53.39
2022-08-23T08:53:17.532Z,53.59
2022-08-23T08:54:17.546Z,53.69
2022-08-23T08:55:17.517Z,53.39
2022-08-23T08:56:17.658Z,51.77
2022-08-23T08:57:17.489Z,51.37
2022-08-23T08:58:17.501Z,51.57
2022-08-23T08:59:17.475Z,51.27
2022-08-23T09:00:17.498Z,50.67
2022-08-23T09:01:17.524Z,50.87
2022-08-23T09:02:20.125Z,51.97
2022-08-23T09:03:18.478Z,51.77
2022-08-23T09:04:17.390Z,51.47
2022-08-23T09:05:17.370Z,50.97
2022-08-23T09:06:17.372Z,51.57
2022-08-23T09:07:17.351Z,51.07
2022-08-23T09:08:17.380Z,51.15
2022-08-23T09:09:17.322Z,51.65
2022-08-23T09:10:17.308Z,50.95
2022-08-23T09:11:17.299Z,51.75
2022-08-23T09:12:17.284Z,51.15
2022-08-23T09:13:18.028Z,51.05
2022-08-23T09:14:17.261Z,50.74
2022-08-23T09:15:17.342Z,51.25
2022-08-23T09:16:17.264Z,50.52
2022-08-23T09:17:17.221Z,50.32
2022-08-23T09:18:17.260Z,50.62
2022-08-23T09:19:17.173Z,51.03
2022-08-23T09:20:17.281Z,51.22
2022-08-23T09:21:17.181Z,50.43
2022-08-23T09:22:17.167Z,49.83
2022-08-23T09:23:17.175Z,50.02
2022-08-23T09:24:17.123Z,49.93
2022-08-23T09:25:17.117Z,50.80
2022-08-23T09:26:17.124Z,50.80
2022-08-23T09:27:17.095Z,51.00
2022-08-23T09:28:17.093Z,50.70
2022-08-23T09:29:17.074Z,50.68
2022-08-23T09:30:17.080Z,50.27
2022-08-23T09:31:17.068Z,49.98
2022-08-23T09:32:17.089Z,48.98
2022-08-23T09:33:17.048Z,49.08
2022-08-23T09:34:16.999Z,49.78
2022-08-23T09:35:16.976Z,50.05
2022-08-23T09:36:16.985Z,50.35
2022-08-23T09:37:16.961Z,50.45
2022-08-23T09:38:16.977Z,49.76
2022-08-23T09:39:16.929Z,49.55
2022-08-23T09:40:17.065Z,49.53
2022-08-23T09:41:17.963Z,49.13
2022-08-23T09:42:16.895Z,48.14
2022-08-23T09:43:16.886Z,48.24
2022-08-23T09:44:16.924Z,48.34
2022-08-23T09:45:16.868Z,48.94
2022-08-23T09:46:16.864Z,48.44
2022-08-23T09:47:16.817Z,48.41
2022-08-23T09:48:16.808Z,48.11
2022-08-23T09:49:16.828Z,48.61
2022-08-23T09:50:16.938Z,48.11
2022-08-23T09:51:16.760Z,47.50
2022-08-23T09:52:22.008Z,47.50
2022-08-23T09:53:17.738Z,47.50
2022-08-23T09:54:16.738Z,47.00
2022-08-23T09:55:16.706Z,47.20
2022-08-23T09:56:16.698Z,46.92
2022-08-23T09:57:16.688Z,46.72
2022-08-23T09:58:16.671Z,46.53
2022-08-23T09:59:16.673Z,46.83
2022-08-23T10:00:16.639Z,48.22
2022-08-23T10:01:25.893Z,48.22
2022-08-23T10:02:16.576Z,48.19
2022-08-23T10:03:16.558Z,48.79
2022-08-23T10:04:16.637Z,48.07
2022-08-23T10:05:16.538Z,47.28
2022-08-23T10:06:16.528Z,46.58
2022-08-23T10:07:16.514Z,46.48
2022-08-23T10:08:16.496Z,46.98
2022-08-23T10:09:16.499Z,45.98
2022-08-23T10:10:16.465Z,45.07
2022-08-23T10:11:16.459Z,46.16
2022-08-23T10:12:16.446Z,46.26
2022-08-23T10:13:16.427Z,45.27
2022-08-23T10:14:16.426Z,45.86
2022-08-23T10:15:16.397Z,46.26
2022-08-23T10:16:16.479Z,45.86
2022-08-23T10:17:16.376Z,45.56
2022-08-23T10:18:16.376Z,45.07
2022-08-23T10:19:16.358Z,45.47
2022-08-23T10:20:16.337Z,45.67
2022-08-23T10:21:20.689Z,45.94
2022-08-23T10:22:16.309Z,45.05
2022-08-23T10:23:16.288Z,44.95
2022-08-23T10:24:16.298Z,44.35
2022-08-23T10:25:16.258Z,45.05
2022-08-23T10:26:16.255Z,44.35
2022-08-23T10:27:16.239Z,44.95
2022-08-23T10:28:16.229Z,45.25
2022-08-23T10:29:16.230Z,45.92
2022-08-23T10:30:16.199Z,45.92
2022-08-23T10:31:16.264Z,45.60
2022-08-23T10:32:16.170Z,44.01
2022-08-23T10:33:18.664Z,44.11
2022-08-23T10:34:16.171Z,43.99
2022-08-23T10:35:16.130Z,43.60
2022-08-23T10:36:16.125Z,43.99
2022-08-23T10:37:16.195Z,43.79
2022-08-23T10:38:16.130Z,43.18
2022-08-23T10:39:16.092Z,43.67
2022-08-23T10:40:16.140Z,43.08
2022-08-23T10:41:16.062Z,42.88
2022-08-23T10:42:16.049Z,43.77
2022-08-23T10:43:16.039Z,43.77
2022-08-23T10:44:16.032Z,43.55
2022-08-23T10:45:15.999Z,42.57
2022-08-23T10:46:16.049Z,40.88
2022-08-23T10:47:15.994Z,40.98
2022-08-23T10:48:15.983Z,40.98
2022-08-23T10:49:15.971Z,40.48
2022-08-23T10:50:15.963Z,40.29
2022-08-23T10:51:19.898Z,40.48
2022-08-23T10:52:16.913Z,41.77
2022-08-23T10:53:15.923Z,41.67
2022-08-23T10:54:15.925Z,43.16
2022-08-23T10:55:15.872Z,43.35
2022-08-23T10:56:15.864Z,41.38
2022-08-23T10:57:15.854Z,40.39
2022-08-23T10:58:15.835Z,40.78
2022-08-23T10:59:15.822Z,41.18
2022-08-23T11:00:15.825Z,40.39
2022-08-23T11:01:15.834Z,40.86
2022-08-23T11:02:15.819Z,40.96
2022-08-23T11:03:15.766Z,40.56
2022-08-23T11:04:15.766Z,41.04
2022-08-23T11:05:15.756Z,40.84
2022-08-23T11:06:15.736Z,40.64
2022-08-23T11:07:15.716Z,39.46
2022-08-23T11:08:15.706Z,39.85
2022-08-23T11:09:15.697Z,40.45
2022-08-23T11:10:16.373Z,40.03
2022-08-23T11:11:15.667Z,39.73
2022-08-23T11:12:15.660Z,38.06
2022-08-23T11:13:15.637Z,38.75
2022-08-23T11:14:15.635Z,39.64
2022-08-23T11:15:15.637Z,39.83
2022-08-23T11:16:15.621Z,38.73
2022-08-23T11:17:15.579Z,38.33
2022-08-23T11:18:15.589Z,37.94
2022-08-23T11:19:15.657Z,38.73
2022-08-23T11:20:15.606Z,39.03
2022-08-23T11:21:15.549Z,37.94
2022-08-23T11:22:15.546Z,37.94
2022-08-23T11:23:15.510Z,37.34
2022-08-23T11:24:15.498Z,37.45
2022-08-23T11:25:15.608Z,39.50
2022-08-23T11:26:15.470Z,39.30
2022-08-23T11:27:15.465Z,37.72
2022-08-23T11:28:15.449Z,37.43
2022-08-23T11:29:15.429Z,37.92
2022-08-23T11:30:15.625Z,38.00
2022-08-23T11:31:15.477Z,37.70
2022-08-23T11:32:15.400Z,37.70
2022-08-23T11:33:15.372Z,37.41
2022-08-23T11:34:15.935Z,36.00
2022-08-23T11:35:15.371Z,36.50
2022-08-23T11:36:15.348Z,36.40
2022-08-23T11:37:15.332Z,36.50
2022-08-23T11:38:15.328Z,36.30
2022-08-23T11:39:19.580Z,36.11
2022-08-23T11:40:18.452Z,35.61
2022-08-23T11:41:15.294Z,34.43
2022-08-23T11:42:15.263Z,35.02
2022-08-23T11:43:15.253Z,35.02
2022-08-23T11:44:15.233Z,35.31
2022-08-23T11:45:15.263Z,35.52
2022-08-23T11:46:15.262Z,35.31
2022-08-23T11:47:15.194Z,36.00
2022-08-23T11:48:15.194Z,36.40
2022-08-23T11:49:15.164Z,36.09
2022-08-23T11:50:15.174Z,35.60
2022-08-23T11:51:15.144Z,36.68
2022-08-23T11:52:15.135Z,35.89
2022-08-23T11:53:15.259Z,36.48
2022-08-23T11:54:15.106Z,35.79
2022-08-23T11:55:15.112Z,35.79
2022-08-23T11:56:15.081Z,36.48
2022-08-23T11:57:15.055Z,36.48
2022-08-23T11:58:15.062Z,36.96
2022-08-23T11:59:15.043Z,37.05
2022-08-23T12:00:15.059Z,36.57
2022-08-23T12:01:15.005Z,36.74
2022-08-23T12:02:16.110Z,36.74
2022-08-23T12:03:15.077Z,36.05
2022-08-23T12:04:14.975Z,35.96
2022-08-23T12:05:14.966Z,35.76
2022-08-23T12:06:14.946Z,35.54
2022-08-23T12:07:14.929Z,34.95
2022-08-23T12:08:14.919Z,34.86
2022-08-23T12:09:14.888Z,36.43
2022-08-23T12:10:14.898Z,36.43
2022-08-23T12:11:14.878Z,36.33
2022-08-23T12:12:14.857Z,36.92
2022-08-23T12:13:14.849Z,36.23
2022-08-23T12:14:14.828Z,36.63
2022-08-23T12:15:14.808Z,35.27
2022-08-23T12:16:16.744Z,35.25
2022-08-23T12:17:15.334Z,34.75
2022-08-23T12:18:14.768Z,35.74
2022-08-23T12:19:14.767Z,35.94
2022-08-23T12:20:17.075Z,35.05
2022-08-23T12:21:14.757Z,34.95
2022-08-23T12:22:14.719Z,35.15
2022-08-23T12:23:14.713Z,35.74
2022-08-23T12:24:14.698Z,36.33
2022-08-23T12:25:14.701Z,35.84
2022-08-23T12:26:14.670Z,36.92
2022-08-23T12:27:14.660Z,37.12
2022-08-23T12:28:14.658Z,35.54
2022-08-23T12:29:14.631Z,36.11
2022-08-23T12:30:14.631Z,36.51
2022-08-23T12:31:14.870Z,35.15
2022-08-23T12:32:14.589Z,35.23
2022-08-23T12:33:14.623Z,35.64
2022-08-23T12:34:14.573Z,35.94
2022-08-23T12:35:14.575Z,36.33
2022-08-23T12:36:16.450Z,36.02
2022-08-23T12:37:14.522Z,35.92
2022-08-23T12:38:14.514Z,36.51
2022-08-23T12:39:14.503Z,36.02
2022-08-23T12:40:14.548Z,35.90
2022-08-23T12:41:14.473Z,35.31
2022-08-23T12:42:14.456Z,35.61
2022-08-23T12:43:17.444Z,35.59
2022-08-23T12:44:17.421Z,35.20
2022-08-23T12:45:15.086Z,35.49
2022-08-23T12:46:14.412Z,36.00
2022-08-23T12:47:14.395Z,35.99
2022-08-23T12:48:14.375Z,35.30
2022-08-23T12:49:15.101Z,35.59
2022-08-23T12:50:15.072Z,36.08
2022-08-23T12:51:14.337Z,35.78
2022-08-23T12:52:14.335Z,35.61
2022-08-23T12:53:14.315Z,36.30
2022-08-23T12:54:14.316Z,35.88
2022-08-23T12:55:14.306Z,36.47